sensor_id;sensor_type;location;lat;lon;timestamp;temperature;humidity
64652;HTU21D;51062;45.120;37.660;2022-09-17T00:02:04;21.34;69.01
64652;HTU21D;51062;45.120;37.660;2022-09-17T00:04:32;21.32;69.05
64652;HTU21D;51062;45.120;37.660;2022-09-17T00:06:58;21.31;69.09
64652;HTU21D;51062;45.120;37.660;2022-09-17T00:09:24;21.29;69.13
64652;HTU21D;51062;45.120;37.660;2022-09-17T00:11:51;21.28;69.16
64652;HTU21D;51062;45.120;37.660;2022-09-17T00:14:17;21.27;69.20
64652;HTU21D;51062;45.120;37.660;2022-09-17T00:16:45;21.25;69.24
64652;HTU21D;51062;45.120;37.660;2022-09-17T00:19:18;21.24;69.28
64652;HTU21D;51062;45.120;37.660;2022-09-17T00:21:45;21.22;69.33
64652;HTU21D;51062;45.120;37.660;2022-09-17T00:24:13;21.22;69.37
64652;HTU21D;51062;45.120;37.660;2022-09-17T00:26:39;21.21;69.40
64652;HTU21D;51062;45.120;37.660;2022-09-17T00:29:06;21.20;69.45
64652;HTU21D;51062;45.120;37.660;2022-09-17T00:31:33;21.20;69.47
64652;HTU21D;51062;45.120;37.660;2022-09-17T00:34:00;21.20;69.51
64652;HTU21D;51062;45.120;37.660;2022-09-17T00:36:27;21.18;69.53
64652;HTU21D;51062;45.120;37.660;2022-09-17T00:38:55;21.21;69.56
64652;HTU21D;51062;45.120;37.660;2022-09-17T00:41:24;21.20;69.58
64652;HTU21D;51062;45.120;37.660;2022-09-17T00:43:53;21.20;69.61
64652;HTU21D;51062;45.120;37.660;2022-09-17T00:46:30;21.19;69.65
64652;HTU21D;51062;45.120;37.660;2022-09-17T00:48:59;21.18;69.65
64652;HTU21D;51062;45.120;37.660;2022-09-17T00:51:35;21.18;69.69
64652;HTU21D;51062;45.120;37.660;2022-09-17T00:54:03;21.15;69.71
64652;HTU21D;51062;45.120;37.660;2022-09-17T00:56:33;21.14;69.76
64652;HTU21D;51062;45.120;37.660;2022-09-17T00:59:01;21.13;69.83
64652;HTU21D;51062;45.120;37.660;2022-09-17T01:01:29;21.14;69.84
64652;HTU21D;51062;45.120;37.660;2022-09-17T01:03:55;21.13;69.86
64652;HTU21D;51062;45.120;37.660;2022-09-17T01:09:23;21.13;69.96
64652;HTU21D;51062;45.120;37.660;2022-09-17T01:12:30;21.13;69.96
64652;HTU21D;51062;45.120;37.660;2022-09-17T01:25:43;20.96;70.10
64652;HTU21D;51062;45.120;37.660;2022-09-17T01:28:40;20.93;70.20
64652;HTU21D;51062;45.120;37.660;2022-09-17T01:31:13;20.90;70.21
64652;HTU21D;51062;45.120;37.660;2022-09-17T01:42:23;20.79;70.40
64652;HTU21D;51062;45.120;37.660;2022-09-17T01:45:14;20.78;70.37
64652;HTU21D;51062;45.120;37.660;2022-09-17T01:47:53;20.76;70.40
64652;HTU21D;51062;45.120;37.660;2022-09-17T01:50:24;20.74;70.41
64652;HTU21D;51062;45.120;37.660;2022-09-17T01:52:54;20.72;70.45
64652;HTU21D;51062;45.120;37.660;2022-09-17T01:55:24;20.72;70.46
64652;HTU21D;51062;45.120;37.660;2022-09-17T01:58:00;20.71;70.51
64652;HTU21D;51062;45.120;37.660;2022-09-17T02:00:29;20.69;70.49
64652;HTU21D;51062;45.120;37.660;2022-09-17T02:03:06;20.66;70.54
64652;HTU21D;51062;45.120;37.660;2022-09-17T02:05:38;20.63;70.55
64652;HTU21D;51062;45.120;37.660;2022-09-17T02:08:15;20.60;70.61
64652;HTU21D;51062;45.120;37.660;2022-09-17T02:10:55;20.57;70.61
64652;HTU21D;51062;45.120;37.660;2022-09-17T02:13:40;20.51;70.69
64652;HTU21D;51062;45.120;37.660;2022-09-17T02:16:20;20.48;70.70
64652;HTU21D;51062;45.120;37.660;2022-09-17T02:24:18;20.35;70.80
64652;HTU21D;51062;45.120;37.660;2022-09-17T02:27:02;20.31;70.88
64652;HTU21D;51062;45.120;37.660;2022-09-17T02:29:40;20.28;70.93
64652;HTU21D;51062;45.120;37.660;2022-09-17T02:32:08;20.25;70.97
64652;HTU21D;51062;45.120;37.660;2022-09-17T02:34:34;20.20;71.00
64652;HTU21D;51062;45.120;37.660;2022-09-17T02:37:01;20.18;71.03
64652;HTU21D;51062;45.120;37.660;2022-09-17T02:39:28;20.16;71.06
64652;HTU21D;51062;45.120;37.660;2022-09-17T02:44:56;20.15;71.15
64652;HTU21D;51062;45.120;37.660;2022-09-17T02:56:07;20.12;71.16
64652;HTU21D;51062;45.120;37.660;2022-09-17T02:58:59;20.11;71.16
64652;HTU21D;51062;45.120;37.660;2022-09-17T03:01:48;20.10;71.15
64652;HTU21D;51062;45.120;37.660;2022-09-17T03:04:17;20.09;71.13
64652;HTU21D;51062;45.120;37.660;2022-09-17T03:06:46;20.07;71.16
64652;HTU21D;51062;45.120;37.660;2022-09-17T03:09:13;20.07;71.19
64652;HTU21D;51062;45.120;37.660;2022-09-17T03:11:40;20.06;71.20
64652;HTU21D;51062;45.120;37.660;2022-09-17T03:14:06;20.06;71.23
64652;HTU21D;51062;45.120;37.660;2022-09-17T03:16:32;20.09;71.28
64652;HTU21D;51062;45.120;37.660;2022-09-17T03:18:58;20.11;71.28
64652;HTU21D;51062;45.120;37.660;2022-09-17T03:21:25;20.15;71.28
64652;HTU21D;51062;45.120;37.660;2022-09-17T03:23:51;20.17;71.25
64652;HTU21D;51062;45.120;37.660;2022-09-17T03:26:17;20.22;71.26
64652;HTU21D;51062;45.120;37.660;2022-09-17T03:28:43;20.28;71.27
64652;HTU21D;51062;45.120;37.660;2022-09-17T03:31:10;20.35;71.32
64652;HTU21D;51062;45.120;37.660;2022-09-17T03:33:36;20.44;71.32
64652;HTU21D;51062;45.120;37.660;2022-09-17T03:36:02;20.53;71.29
64652;HTU21D;51062;45.120;37.660;2022-09-17T03:38:28;20.60;71.29
64652;HTU21D;51062;45.120;37.660;2022-09-17T03:41:02;20.70;71.29
64652;HTU21D;51062;45.120;37.660;2022-09-17T03:43:28;20.79;71.24
64652;HTU21D;51062;45.120;37.660;2022-09-17T03:45:55;20.91;71.18
64652;HTU21D;51062;45.120;37.660;2022-09-17T03:48:21;21.10;71.28
64652;HTU21D;51062;45.120;37.660;2022-09-17T03:50:48;21.37;71.42
64652;HTU21D;51062;45.120;37.660;2022-09-17T03:53:14;21.59;71.17
64652;HTU21D;51062;45.120;37.660;2022-09-17T03:55:41;21.70;70.97
64652;HTU21D;51062;45.120;37.660;2022-09-17T03:58:07;21.78;70.85
64652;HTU21D;51062;45.120;37.660;2022-09-17T04:00:34;21.90;70.91
64652;HTU21D;51062;45.120;37.660;2022-09-17T04:03:03;22.32;71.22
64652;HTU21D;51062;45.120;37.660;2022-09-17T04:05:29;22.90;70.93
64652;HTU21D;51062;45.120;37.660;2022-09-17T04:07:56;23.54;70.74
64652;HTU21D;51062;45.120;37.660;2022-09-17T04:10:22;24.21;70.39
64652;HTU21D;51062;45.120;37.660;2022-09-17T04:12:48;24.65;69.70
64652;HTU21D;51062;45.120;37.660;2022-09-17T04:15:14;24.61;69.21
64652;HTU21D;51062;45.120;37.660;2022-09-17T04:17:40;24.35;69.22
64652;HTU21D;51062;45.120;37.660;2022-09-17T04:20:06;24.04;69.35
64652;HTU21D;51062;45.120;37.660;2022-09-17T04:22:33;23.73;69.60
64652;HTU21D;51062;45.120;37.660;2022-09-17T04:24:59;23.42;69.82
64652;HTU21D;51062;45.120;37.660;2022-09-17T04:27:25;23.14;70.02
64652;HTU21D;51062;45.120;37.660;2022-09-17T04:29:51;22.90;70.16
64652;HTU21D;51062;45.120;37.660;2022-09-17T04:32:17;22.69;70.29
64652;HTU21D;51062;45.120;37.660;2022-09-17T04:34:43;22.50;70.39
64652;HTU21D;51062;45.120;37.660;2022-09-17T04:37:09;22.33;70.46
64652;HTU21D;51062;45.120;37.660;2022-09-17T04:39:35;22.18;70.53
64652;HTU21D;51062;45.120;37.660;2022-09-17T04:42:03;22.07;70.58
64652;HTU21D;51062;45.120;37.660;2022-09-17T04:44:29;21.96;70.58
64652;HTU21D;51062;45.120;37.660;2022-09-17T04:46:55;21.85;70.64
64652;HTU21D;51062;45.120;37.660;2022-09-17T04:49:21;21.78;70.66
64652;HTU21D;51062;45.120;37.660;2022-09-17T04:51:47;21.70;70.65
64652;HTU21D;51062;45.120;37.660;2022-09-17T04:54:13;21.66;70.65
64652;HTU21D;51062;45.120;37.660;2022-09-17T04:56:39;21.62;70.63
64652;HTU21D;51062;45.120;37.660;2022-09-17T04:59:05;21.61;70.64
64652;HTU21D;51062;45.120;37.660;2022-09-17T05:01:31;21.59;70.65
64652;HTU21D;51062;45.120;37.660;2022-09-17T05:03:58;21.61;70.65
64652;HTU21D;51062;45.120;37.660;2022-09-17T05:06:24;21.66;70.64
64652;HTU21D;51062;45.120;37.660;2022-09-17T05:08:50;21.70;70.58
64652;HTU21D;51062;45.120;37.660;2022-09-17T05:11:16;21.74;70.55
64652;HTU21D;51062;45.120;37.660;2022-09-17T05:13:42;21.77;70.53
64652;HTU21D;51062;45.120;37.660;2022-09-17T05:16:08;21.81;70.51
64652;HTU21D;51062;45.120;37.660;2022-09-17T05:18:35;21.88;70.47
64652;HTU21D;51062;45.120;37.660;2022-09-17T05:21:01;21.94;70.45
64652;HTU21D;51062;45.120;37.660;2022-09-17T05:23:27;22.01;70.46
64652;HTU21D;51062;45.120;37.660;2022-09-17T05:25:57;22.11;70.45
64652;HTU21D;51062;45.120;37.660;2022-09-17T05:28:25;22.22;70.42
64652;HTU21D;51062;45.120;37.660;2022-09-17T05:30:51;22.37;70.35
64652;HTU21D;51062;45.120;37.660;2022-09-17T05:33:17;22.52;70.35
64652;HTU21D;51062;45.120;37.660;2022-09-17T05:35:44;22.69;70.28
64652;HTU21D;51062;45.120;37.660;2022-09-17T05:38:10;22.87;70.18
64652;HTU21D;51062;45.120;37.660;2022-09-17T05:40:36;23.00;70.07
64652;HTU21D;51062;45.120;37.660;2022-09-17T05:43:04;23.16;69.93
64652;HTU21D;51062;45.120;37.660;2022-09-17T05:45:34;23.37;69.90
64652;HTU21D;51062;45.120;37.660;2022-09-17T05:48:02;23.67;69.69
64652;HTU21D;51062;45.120;37.660;2022-09-17T05:50:28;23.99;69.45
64652;HTU21D;51062;45.120;37.660;2022-09-17T05:52:54;24.39;69.26
64652;HTU21D;51062;45.120;37.660;2022-09-17T05:55:22;24.87;69.03
64652;HTU21D;51062;45.120;37.660;2022-09-17T05:57:49;25.36;68.62
64652;HTU21D;51062;45.120;37.660;2022-09-17T06:00:16;25.80;68.39
64652;HTU21D;51062;45.120;37.660;2022-09-17T06:02:42;26.33;68.13
64652;HTU21D;51062;45.120;37.660;2022-09-17T06:05:08;26.93;67.92
64652;HTU21D;51062;45.120;37.660;2022-09-17T06:07:36;27.74;67.43
64652;HTU21D;51062;45.120;37.660;2022-09-17T06:10:04;28.47;66.59
64652;HTU21D;51062;45.120;37.660;2022-09-17T06:12:31;28.97;66.14
64652;HTU21D;51062;45.120;37.660;2022-09-17T06:15:00;29.26;65.78
64652;HTU21D;51062;45.120;37.660;2022-09-17T06:17:27;29.62;65.80
64652;HTU21D;51062;45.120;37.660;2022-09-17T06:19:53;29.97;65.26
64652;HTU21D;51062;45.120;37.660;2022-09-17T06:22:19;30.23;65.16
64652;HTU21D;51062;45.120;37.660;2022-09-17T06:24:45;30.71;64.90
64652;HTU21D;51062;45.120;37.660;2022-09-17T06:27:11;31.27;64.28
64652;HTU21D;51062;45.120;37.660;2022-09-17T06:29:37;31.65;63.78
64652;HTU21D;51062;45.120;37.660;2022-09-17T06:32:04;31.93;63.60
64652;HTU21D;51062;45.120;37.660;2022-09-17T06:34:33;31.99;63.11
64652;HTU21D;51062;45.120;37.660;2022-09-17T06:36:59;31.70;63.38
64652;HTU21D;51062;45.120;37.660;2022-09-17T06:39:26;31.54;63.80
64652;HTU21D;51062;45.120;37.660;2022-09-17T06:41:52;31.80;63.48
64652;HTU21D;51062;45.120;37.660;2022-09-17T06:44:18;31.95;62.78
64652;HTU21D;51062;45.120;37.660;2022-09-17T06:46:44;31.36;62.85
64652;HTU21D;51062;45.120;37.660;2022-09-17T06:49:10;30.69;63.89
64652;HTU21D;51062;45.120;37.660;2022-09-17T06:51:36;30.37;64.14
64652;HTU21D;51062;45.120;37.660;2022-09-17T06:54:02;29.96;64.27
64652;HTU21D;51062;45.120;37.660;2022-09-17T06:56:28;29.66;64.47
64652;HTU21D;51062;45.120;37.660;2022-09-17T06:58:54;29.22;64.50
64652;HTU21D;51062;45.120;37.660;2022-09-17T07:01:20;28.84;64.91
64652;HTU21D;51062;45.120;37.660;2022-09-17T07:03:46;28.72;65.25
64652;HTU21D;51062;45.120;37.660;2022-09-17T07:06:14;28.91;64.70
64652;HTU21D;51062;45.120;37.660;2022-09-17T07:08:40;28.95;64.51
64652;HTU21D;51062;45.120;37.660;2022-09-17T07:11:06;29.04;64.24
64652;HTU21D;51062;45.120;37.660;2022-09-17T07:13:33;29.22;64.29
64652;HTU21D;51062;45.120;37.660;2022-09-17T07:16:01;29.82;63.89
64652;HTU21D;51062;45.120;37.660;2022-09-17T07:18:28;30.57;62.97
64652;HTU21D;51062;45.120;37.660;2022-09-17T07:20:59;31.24;62.12
64652;HTU21D;51062;45.120;37.660;2022-09-17T07:23:28;31.78;61.56
64652;HTU21D;51062;45.120;37.660;2022-09-17T07:25:56;32.22;61.07
64652;HTU21D;51062;45.120;37.660;2022-09-17T07:28:23;32.52;60.70
64652;HTU21D;51062;45.120;37.660;2022-09-17T07:30:50;32.66;60.62
64652;HTU21D;51062;45.120;37.660;2022-09-17T07:33:19;32.74;60.59
64652;HTU21D;51062;45.120;37.660;2022-09-17T07:35:59;32.91;60.57
64652;HTU21D;51062;45.120;37.660;2022-09-17T07:38:27;33.15;60.23
64652;HTU21D;51062;45.120;37.660;2022-09-17T07:41:01;33.40;59.77
64652;HTU21D;51062;45.120;37.660;2022-09-17T07:43:29;33.50;59.54
64652;HTU21D;51062;45.120;37.660;2022-09-17T07:45:56;33.60;59.41
64652;HTU21D;51062;45.120;37.660;2022-09-17T07:48:23;33.71;59.25
64652;HTU21D;51062;45.120;37.660;2022-09-17T07:50:49;33.73;59.16
64652;HTU21D;51062;45.120;37.660;2022-09-17T07:53:16;33.73;59.14
64652;HTU21D;51062;45.120;37.660;2022-09-17T07:55:42;33.72;59.02
64652;HTU21D;51062;45.120;37.660;2022-09-17T07:58:15;33.61;58.96
64652;HTU21D;51062;45.120;37.660;2022-09-17T08:00:41;33.58;58.81
64652;HTU21D;51062;45.120;37.660;2022-09-17T08:03:08;33.50;58.43
64652;HTU21D;51062;45.120;37.660;2022-09-17T08:05:34;33.36;58.25
64652;HTU21D;51062;45.120;37.660;2022-09-17T08:08:00;32.97;58.18
64652;HTU21D;51062;45.120;37.660;2022-09-17T08:10:26;32.49;58.43
64652;HTU21D;51062;45.120;37.660;2022-09-17T08:12:57;31.79;58.87
64652;HTU21D;51062;45.120;37.660;2022-09-17T08:15:24;31.07;59.89
64652;HTU21D;51062;45.120;37.660;2022-09-17T08:17:50;30.62;60.50
64652;HTU21D;51062;45.120;37.660;2022-09-17T08:20:17;30.30;60.70
64652;HTU21D;51062;45.120;37.660;2022-09-17T08:22:45;30.04;60.91
64652;HTU21D;51062;45.120;37.660;2022-09-17T08:25:11;29.87;61.06
64652;HTU21D;51062;45.120;37.660;2022-09-17T08:27:37;29.79;61.09
64652;HTU21D;51062;45.120;37.660;2022-09-17T08:30:06;29.71;61.15
64652;HTU21D;51062;45.120;37.660;2022-09-17T08:32:33;29.65;61.05
64652;HTU21D;51062;45.120;37.660;2022-09-17T08:34:59;29.54;61.01
64652;HTU21D;51062;45.120;37.660;2022-09-17T08:37:27;29.42;61.15
64652;HTU21D;51062;45.120;37.660;2022-09-17T08:39:54;29.36;61.19
64652;HTU21D;51062;45.120;37.660;2022-09-17T08:42:34;29.35;61.17
64652;HTU21D;51062;45.120;37.660;2022-09-17T08:45:03;29.42;61.03
64652;HTU21D;51062;45.120;37.660;2022-09-17T08:47:33;29.39;60.89
64652;HTU21D;51062;45.120;37.660;2022-09-17T08:52:55;29.28;60.86
64652;HTU21D;51062;45.120;37.660;2022-09-17T09:06:35;29.21;60.72
64652;HTU21D;51062;45.120;37.660;2022-09-17T09:09:11;29.26;60.70
64652;HTU21D;51062;45.120;37.660;2022-09-17T09:11:39;29.28;60.67
64652;HTU21D;51062;45.120;37.660;2022-09-17T09:16:45;29.35;60.54
64652;HTU21D;51062;45.120;37.660;2022-09-17T09:19:22;29.44;60.44
64652;HTU21D;51062;45.120;37.660;2022-09-17T09:25:05;29.49;60.14
64652;HTU21D;51062;45.120;37.660;2022-09-17T09:27:40;29.42;59.99
64652;HTU21D;51062;45.120;37.660;2022-09-17T09:30:14;29.21;59.93
64652;HTU21D;51062;45.120;37.660;2022-09-17T09:35:32;28.94;60.19
64652;HTU21D;51062;45.120;37.660;2022-09-17T09:40:43;29.05;59.99
64652;HTU21D;51062;45.120;37.660;2022-09-17T09:43:19;29.14;59.85
64652;HTU21D;51062;45.120;37.660;2022-09-17T09:48:51;29.23;59.57
64652;HTU21D;51062;45.120;37.660;2022-09-17T09:51:29;29.30;59.49
64652;HTU21D;51062;45.120;37.660;2022-09-17T09:56:59;29.38;59.25
64652;HTU21D;51062;45.120;37.660;2022-09-17T09:59:28;29.34;59.18
64652;HTU21D;51062;45.120;37.660;2022-09-17T10:01:54;29.24;59.14
64652;HTU21D;51062;45.120;37.660;2022-09-17T10:04:23;29.11;59.22
64652;HTU21D;51062;45.120;37.660;2022-09-17T10:07:13;29.04;59.32
64652;HTU21D;51062;45.120;37.660;2022-09-17T10:09:44;29.03;59.37
64652;HTU21D;51062;45.120;37.660;2022-09-17T10:14:38;29.16;59.29
64652;HTU21D;51062;45.120;37.660;2022-09-17T10:17:17;29.24;59.17
64652;HTU21D;51062;45.120;37.660;2022-09-17T10:20:11;29.19;58.89
64652;HTU21D;51062;45.120;37.660;2022-09-17T10:22:40;29.03;58.93
64652;HTU21D;51062;45.120;37.660;2022-09-17T10:25:29;28.89;59.02
64652;HTU21D;51062;45.120;37.660;2022-09-17T10:27:58;28.80;59.11
64652;HTU21D;51062;45.120;37.660;2022-09-17T10:30:24;28.80;59.09
64652;HTU21D;51062;45.120;37.660;2022-09-17T10:33:14;28.84;59.08
64652;HTU21D;51062;45.120;37.660;2022-09-17T10:35:58;28.86;59.03
64652;HTU21D;51062;45.120;37.660;2022-09-17T10:38:30;28.93;59.05
64652;HTU21D;51062;45.120;37.660;2022-09-17T10:41:22;29.04;58.91
64652;HTU21D;51062;45.120;37.660;2022-09-17T10:43:50;29.16;58.86
64652;HTU21D;51062;45.120;37.660;2022-09-17T10:46:26;29.22;58.62
64652;HTU21D;51062;45.120;37.660;2022-09-17T10:49:13;29.18;58.58
64652;HTU21D;51062;45.120;37.660;2022-09-17T10:51:46;29.09;58.61
64652;HTU21D;51062;45.120;37.660;2022-09-17T10:56:53;29.08;58.74
64652;HTU21D;51062;45.120;37.660;2022-09-17T11:04:53;29.18;58.60
64652;HTU21D;51062;45.120;37.660;2022-09-17T11:07:32;29.20;58.56
64652;HTU21D;51062;45.120;37.660;2022-09-17T11:10:28;29.22;58.54
64652;HTU21D;51062;45.120;37.660;2022-09-17T11:16:40;29.23;58.49
64652;HTU21D;51062;45.120;37.660;2022-09-17T11:25:43;29.06;58.45
64652;HTU21D;51062;45.120;37.660;2022-09-17T11:28:24;28.87;58.51
64652;HTU21D;51062;45.120;37.660;2022-09-17T11:39:27;28.61;58.89
64652;HTU21D;51062;45.120;37.660;2022-09-17T11:41:57;28.58;58.87
64652;HTU21D;51062;45.120;37.660;2022-09-17T11:47:28;28.60;58.95
64652;HTU21D;51062;45.120;37.660;2022-09-17T11:50:04;28.69;58.94
64652;HTU21D;51062;45.120;37.660;2022-09-17T11:52:44;28.79;58.87
64652;HTU21D;51062;45.120;37.660;2022-09-17T11:55:48;28.89;58.76
64652;HTU21D;51062;45.120;37.660;2022-09-17T12:01:39;28.89;58.58
64652;HTU21D;51062;45.120;37.660;2022-09-17T12:06:55;28.85;58.61
64652;HTU21D;51062;45.120;37.660;2022-09-17T12:09:27;28.84;58.54
64652;HTU21D;51062;45.120;37.660;2022-09-17T12:12:15;28.84;58.48
64652;HTU21D;51062;45.120;37.660;2022-09-17T12:17:20;28.77;58.43
64652;HTU21D;51062;45.120;37.660;2022-09-17T12:19:59;28.77;58.34
64652;HTU21D;51062;45.120;37.660;2022-09-17T12:22:29;28.71;58.25
64652;HTU21D;51062;45.120;37.660;2022-09-17T12:24:59;28.69;58.29
64652;HTU21D;51062;45.120;37.660;2022-09-17T12:30:19;28.67;58.20
64652;HTU21D;51062;45.120;37.660;2022-09-17T12:38:26;28.59;57.95
64652;HTU21D;51062;45.120;37.660;2022-09-17T13:00:24;27.84;57.92
64652;HTU21D;51062;45.120;37.660;2022-09-17T13:03:11;27.74;58.00
64652;HTU21D;51062;45.120;37.660;2022-09-17T13:11:34;27.60;58.02
64652;HTU21D;51062;45.120;37.660;2022-09-17T13:14:36;27.56;58.00
64652;HTU21D;51062;45.120;37.660;2022-09-17T13:17:32;27.49;58.00
64652;HTU21D;51062;45.120;37.660;2022-09-17T13:22:31;27.39;58.00
64652;HTU21D;51062;45.120;37.660;2022-09-17T13:25:10;27.37;58.02
64652;HTU21D;51062;45.120;37.660;2022-09-17T13:27:38;27.34;58.03
64652;HTU21D;51062;45.120;37.660;2022-09-17T13:30:09;27.34;58.04
64652;HTU21D;51062;45.120;37.660;2022-09-17T13:37:57;27.34;58.09
64652;HTU21D;51062;45.120;37.660;2022-09-17T13:43:09;27.26;58.09
64652;HTU21D;51062;45.120;37.660;2022-09-17T13:46:14;27.20;58.10
64652;HTU21D;51062;45.120;37.660;2022-09-17T13:48:47;27.16;58.14
64652;HTU21D;51062;45.120;37.660;2022-09-17T13:54:00;27.10;58.16
64652;HTU21D;51062;45.120;37.660;2022-09-17T13:56:49;27.05;58.18
64652;HTU21D;51062;45.120;37.660;2022-09-17T13:59:25;26.99;58.19
64652;HTU21D;51062;45.120;37.660;2022-09-17T14:07:43;26.85;58.25
64652;HTU21D;51062;45.120;37.660;2022-09-17T14:18:01;26.69;58.29
64652;HTU21D;51062;45.120;37.660;2022-09-17T14:20:31;26.66;58.31
64652;HTU21D;51062;45.120;37.660;2022-09-17T14:23:01;26.63;58.32
64652;HTU21D;51062;45.120;37.660;2022-09-17T14:25:45;26.60;58.34
64652;HTU21D;51062;45.120;37.660;2022-09-17T14:28:38;26.53;58.37
64652;HTU21D;51062;45.120;37.660;2022-09-17T14:31:17;26.50;58.38
64652;HTU21D;51062;45.120;37.660;2022-09-17T14:33:44;26.46;58.42
64652;HTU21D;51062;45.120;37.660;2022-09-17T14:36:15;26.42;58.45
64652;HTU21D;51062;45.120;37.660;2022-09-17T14:38:52;26.39;58.49
64652;HTU21D;51062;45.120;37.660;2022-09-17T14:41:24;26.36;58.53
64652;HTU21D;51062;45.120;37.660;2022-09-17T14:44:03;26.33;58.54
64652;HTU21D;51062;45.120;37.660;2022-09-17T14:46:37;26.31;58.56
64652;HTU21D;51062;45.120;37.660;2022-09-17T14:49:21;26.26;58.60
64652;HTU21D;51062;45.120;37.660;2022-09-17T14:51:49;26.22;58.60
64652;HTU21D;51062;45.120;37.660;2022-09-17T14:54:23;26.18;58.62
64652;HTU21D;51062;45.120;37.660;2022-09-17T14:57:20;26.11;58.67
64652;HTU21D;51062;45.120;37.660;2022-09-17T15:04:51;25.88;58.79
64652;HTU21D;51062;45.120;37.660;2022-09-17T15:07:20;25.77;58.86
64652;HTU21D;51062;45.120;37.660;2022-09-17T15:09:46;25.69;58.94
64652;HTU21D;51062;45.120;37.660;2022-09-17T15:12:16;25.58;59.03
64652;HTU21D;51062;45.120;37.660;2022-09-17T15:14:45;25.51;59.13
64652;HTU21D;51062;45.120;37.660;2022-09-17T15:17:15;25.45;59.19
64652;HTU21D;51062;45.120;37.660;2022-09-17T15:19:45;25.36;59.24
64652;HTU21D;51062;45.120;37.660;2022-09-17T15:22:35;25.25;59.32
64652;HTU21D;51062;45.120;37.660;2022-09-17T15:25:09;25.18;59.42
64652;HTU21D;51062;45.120;37.660;2022-09-17T15:27:42;25.07;59.49
64652;HTU21D;51062;45.120;37.660;2022-09-17T15:30:15;24.99;59.60
64652;HTU21D;51062;45.120;37.660;2022-09-17T15:32:52;24.90;59.67
64652;HTU21D;51062;45.120;37.660;2022-09-17T15:35:22;24.82;59.75
64652;HTU21D;51062;45.120;37.660;2022-09-17T15:37:54;24.72;59.83
64652;HTU21D;51062;45.120;37.660;2022-09-17T15:43:03;24.55;59.98
64652;HTU21D;51062;45.120;37.660;2022-09-17T15:45:33;24.45;60.06
64652;HTU21D;51062;45.120;37.660;2022-09-17T15:48:04;24.35;60.12
64652;HTU21D;51062;45.120;37.660;2022-09-17T15:50:35;24.24;60.21
64652;HTU21D;51062;45.120;37.660;2022-09-17T15:53:28;24.15;60.31
64652;HTU21D;51062;45.120;37.660;2022-09-17T15:58:53;23.97;60.51
64652;HTU21D;51062;45.120;37.660;2022-09-17T16:04:04;23.83;60.62
64652;HTU21D;51062;45.120;37.660;2022-09-17T16:08:59;23.70;60.72
64652;HTU21D;51062;45.120;37.660;2022-09-17T16:11:28;23.66;60.76
64652;HTU21D;51062;45.120;37.660;2022-09-17T16:13:57;23.59;60.80
64652;HTU21D;51062;45.120;37.660;2022-09-17T16:16:34;23.54;60.83
64652;HTU21D;51062;45.120;37.660;2022-09-17T16:19:00;23.47;60.87
64652;HTU21D;51062;45.120;37.660;2022-09-17T16:21:26;23.42;60.94
64652;HTU21D;51062;45.120;37.660;2022-09-17T16:23:53;23.38;60.99
64652;HTU21D;51062;45.120;37.660;2022-09-17T16:26:32;23.32;61.03
64652;HTU21D;51062;45.120;37.660;2022-09-17T16:29:10;23.29;61.05
64652;HTU21D;51062;45.120;37.660;2022-09-17T16:31:38;23.23;61.07
64652;HTU21D;51062;45.120;37.660;2022-09-17T16:34:04;23.17;61.10
64652;HTU21D;51062;45.120;37.660;2022-09-17T16:36:30;23.10;61.18
64652;HTU21D;51062;45.120;37.660;2022-09-17T16:38:58;23.03;61.25
64652;HTU21D;51062;45.120;37.660;2022-09-17T16:41:25;22.95;61.33
64652;HTU21D;51062;45.120;37.660;2022-09-17T16:43:51;22.88;61.40
64652;HTU21D;51062;45.120;37.660;2022-09-17T16:46:17;22.83;61.48
64652;HTU21D;51062;45.120;37.660;2022-09-17T16:48:43;22.77;61.58
64652;HTU21D;51062;45.120;37.660;2022-09-17T16:51:12;22.73;61.65
64652;HTU21D;51062;45.120;37.660;2022-09-17T16:53:39;22.68;61.69
64652;HTU21D;51062;45.120;37.660;2022-09-17T16:56:10;22.62;61.75
64652;HTU21D;51062;45.120;37.660;2022-09-17T16:58:36;22.58;61.78
64652;HTU21D;51062;45.120;37.660;2022-09-17T17:01:11;22.51;61.86
64652;HTU21D;51062;45.120;37.660;2022-09-17T17:03:37;22.46;61.94
64652;HTU21D;51062;45.120;37.660;2022-09-17T17:06:04;22.38;62.02
64652;HTU21D;51062;45.120;37.660;2022-09-17T17:08:31;22.33;62.12
64652;HTU21D;51062;45.120;37.660;2022-09-17T17:10:58;22.26;62.19
64652;HTU21D;51062;45.120;37.660;2022-09-17T17:13:24;22.21;62.28
64652;HTU21D;51062;45.120;37.660;2022-09-17T17:15:52;22.14;62.37
64652;HTU21D;51062;45.120;37.660;2022-09-17T17:18:21;22.07;62.47
64652;HTU21D;51062;45.120;37.660;2022-09-17T17:20:48;22.02;62.52
64652;HTU21D;51062;45.120;37.660;2022-09-17T17:23:14;21.95;62.63
64652;HTU21D;51062;45.120;37.660;2022-09-17T17:25:40;21.88;62.74
64652;HTU21D;51062;45.120;37.660;2022-09-17T17:28:06;21.83;62.79
64652;HTU21D;51062;45.120;37.660;2022-09-17T17:30:32;21.79;62.83
64652;HTU21D;51062;45.120;37.660;2022-09-17T17:32:59;21.75;62.91
64652;HTU21D;51062;45.120;37.660;2022-09-17T17:35:25;21.73;62.93
64652;HTU21D;51062;45.120;37.660;2022-09-17T17:37:51;21.66;63.00
64652;HTU21D;51062;45.120;37.660;2022-09-17T17:40:18;21.62;63.09
64652;HTU21D;51062;45.120;37.660;2022-09-17T17:42:44;21.57;63.15
64652;HTU21D;51062;45.120;37.660;2022-09-17T17:45:12;21.55;63.19
64652;HTU21D;51062;45.120;37.660;2022-09-17T17:47:39;21.50;63.23
64652;HTU21D;51062;45.120;37.660;2022-09-17T17:50:06;21.46;63.29
64652;HTU21D;51062;45.120;37.660;2022-09-17T17:52:33;21.42;63.37
64652;HTU21D;51062;45.120;37.660;2022-09-17T17:55:01;21.39;63.44
64652;HTU21D;51062;45.120;37.660;2022-09-17T17:57:27;21.37;63.45
64652;HTU21D;51062;45.120;37.660;2022-09-17T17:59:53;21.35;63.48
64652;HTU21D;51062;45.120;37.660;2022-09-17T18:02:19;21.32;63.54
64652;HTU21D;51062;45.120;37.660;2022-09-17T18:04:45;21.30;63.60
64652;HTU21D;51062;45.120;37.660;2022-09-17T18:07:11;21.28;63.66
64652;HTU21D;51062;45.120;37.660;2022-09-17T18:09:38;21.24;63.70
64652;HTU21D;51062;45.120;37.660;2022-09-17T18:12:04;21.22;63.78
64652;HTU21D;51062;45.120;37.660;2022-09-17T18:14:30;21.19;63.86
64652;HTU21D;51062;45.120;37.660;2022-09-17T18:16:56;21.16;63.95
64652;HTU21D;51062;45.120;37.660;2022-09-17T18:19:23;21.14;64.03
64652;HTU21D;51062;45.120;37.660;2022-09-17T18:21:49;21.11;64.08
64652;HTU21D;51062;45.120;37.660;2022-09-17T18:24:15;21.10;64.11
64652;HTU21D;51062;45.120;37.660;2022-09-17T18:26:41;21.07;64.16
64652;HTU21D;51062;45.120;37.660;2022-09-17T18:29:09;21.07;64.21
64652;HTU21D;51062;45.120;37.660;2022-09-17T18:31:36;21.06;64.24